createdAt,value
2022-12-28T00:01:14.291Z,100.00
2022-12-28T00:06:19.746Z,100.00
2022-12-28T00:11:27.564Z,100.00
2022-12-28T00:16:36.294Z,100.00
2022-12-28T00:21:41.014Z,100.00
2022-12-28T00:26:43.821Z,100.00
2022-12-28T00:31:47.299Z,100.00
2022-12-28T00:37:08.885Z,100.00
2022-12-28T00:42:15.273Z,100.00
2022-12-28T00:47:18.155Z,100.00
2022-12-28T00:52:22.309Z,100.00
2022-12-28T00:57:25.127Z,100.00
2022-12-28T01:02:27.989Z,100.00
2022-12-28T01:07:32.250Z,100.00
2022-12-28T01:12:38.245Z,100.00
2022-12-28T01:17:41.624Z,99.57
2022-12-28T01:22:45.776Z,98.79
2022-12-28T01:27:50.403Z,98.86
2022-12-28T01:32:54.135Z,97.67
2022-12-28T01:37:59.206Z,98.01
2022-12-28T01:43:02.347Z,97.04
2022-12-28T01:48:05.690Z,98.90
2022-12-28T01:53:11.471Z,96.48
2022-12-28T01:58:18.425Z,96.94
2022-12-28T02:03:26.958Z,95.79
2022-12-28T02:08:35.641Z,96.26
2022-12-28T02:13:39.028Z,96.94
2022-12-28T02:18:44.408Z,96.97
2022-12-28T02:24:38.161Z,95.62
2022-12-28T02:30:07.527Z,97.82
2022-12-28T02:35:16.348Z,100.00
2022-12-28T02:40:25.021Z,100.00
2022-12-28T02:45:53.050Z,100.00
2022-12-28T02:51:15.546Z,100.00
2022-12-28T02:56:34.784Z,100.00
2022-12-28T03:02:05.289Z,100.00
2022-12-28T03:07:35.588Z,100.00
2022-12-28T03:12:44.857Z,100.00
2022-12-28T03:18:08.204Z,100.00
2022-12-28T03:23:32.563Z,100.00
2022-12-28T03:28:56.886Z,100.00
2022-12-28T03:34:07.543Z,100.00
2022-12-28T03:39:32.226Z,100.00
2022-12-28T03:44:36.595Z,100.00
2022-12-28T03:49:41.306Z,100.00
2022-12-28T03:54:45.232Z,100.00
2022-12-28T03:59:50.572Z,100.00
2022-12-28T04:04:55.984Z,100.00
2022-12-28T04:09:59.516Z,100.00
2022-12-28T04:15:02.457Z,100.00
2022-12-28T04:20:09.904Z,100.00
2022-12-28T04:25:12.918Z,100.00
2022-12-28T04:30:16.438Z,100.00
2022-12-28T04:35:20.913Z,100.00
2022-12-28T04:40:25.869Z,100.00
2022-12-28T04:45:28.734Z,100.00
2022-12-28T04:50:33.028Z,100.00
2022-12-28T04:55:36.146Z,100.00
2022-12-28T05:00:39.195Z,100.00
2022-12-28T05:05:43.301Z,100.00
2022-12-28T05:10:46.075Z,100.00
2022-12-28T05:15:48.896Z,100.00
2022-12-28T05:21:00.133Z,100.00
2022-12-28T05:26:03.351Z,100.00
2022-12-28T05:31:08.671Z,100.00
2022-12-28T05:36:14.990Z,100.00
2022-12-28T05:41:19.421Z,100.00
2022-12-28T05:46:25.265Z,100.00
2022-12-28T05:51:32.212Z,100.00
2022-12-28T05:56:35.328Z,100.00
2022-12-28T06:01:40.591Z,100.00
2022-12-28T06:06:46.058Z,100.00
2022-12-28T06:11:48.864Z,100.00
2022-12-28T06:16:52.074Z,100.00
2022-12-28T06:21:56.229Z,100.00
2022-12-28T06:26:59.069Z,100.00
2022-12-28T06:32:02.009Z,100.00
2022-12-28T06:37:06.217Z,100.00
2022-12-28T06:42:08.997Z,100.00
2022-12-28T06:47:12.210Z,100.00
2022-12-28T06:52:16.436Z,100.00
2022-12-28T06:57:19.572Z,100.00
2022-12-28T07:02:22.565Z,100.00
2022-12-28T07:07:27.108Z,100.00
2022-12-28T07:12:29.904Z,100.00
2022-12-28T07:17:32.658Z,100.00
2022-12-28T07:22:36.739Z,100.00
2022-12-28T07:27:39.488Z,100.00
2022-12-28T07:32:42.212Z,100.00
2022-12-28T07:37:46.429Z,100.00
2022-12-28T07:42:49.184Z,100.00
2022-12-28T07:47:52.020Z,100.00
2022-12-28T07:52:59.243Z,100.00
2022-12-28T07:58:01.964Z,100.00
2022-12-28T08:03:04.790Z,100.00
2022-12-28T08:08:08.927Z,100.00
2022-12-28T08:13:11.727Z,100.00
2022-12-28T08:18:14.538Z,100.00
2022-12-28T08:23:18.703Z,100.00
2022-12-28T08:28:21.500Z,100.00
2022-12-28T08:33:24.347Z,100.00
2022-12-28T08:38:28.705Z,100.00
2022-12-28T08:43:32.821Z,100.00
2022-12-28T08:48:36.288Z,100.00
2022-12-28T08:53:41.304Z,100.00
2022-12-28T08:58:46.075Z,100.00
2022-12-28T09:03:50.497Z,100.00
2022-12-28T09:09:05.333Z,100.00
2022-12-28T09:14:14.458Z,100.00
2022-12-28T09:19:22.086Z,100.00
2022-12-28T09:24:26.302Z,100.00
2022-12-28T09:29:29.015Z,100.00
2022-12-28T09:34:36.773Z,100.00
2022-12-28T09:39:41.489Z,100.00
2022-12-28T09:44:50.425Z,100.00
2022-12-28T09:50:24.977Z,100.00
2022-12-28T09:55:33.052Z,100.00
2022-12-28T10:00:40.611Z,100.00
2022-12-28T10:05:43.450Z,100.00
2022-12-28T10:10:49.339Z,100.00
2022-12-28T10:15:53.586Z,100.00
2022-12-28T10:20:57.005Z,100.00
2022-12-28T10:26:02.909Z,100.00
2022-12-28T10:31:08.359Z,100.00
2022-12-28T10:36:14.581Z,100.00
2022-12-28T10:41:20.691Z,100.00
2022-12-28T10:46:25.068Z,100.00
2022-12-28T10:51:30.286Z,100.00
2022-12-28T10:56:46.128Z,100.00
2022-12-28T11:01:48.997Z,100.00
2022-12-28T11:06:53.714Z,100.00
2022-12-28T11:12:17.491Z,100.00
2022-12-28T11:17:22.369Z,100.00
2022-12-28T11:22:27.990Z,100.00
2022-12-28T11:27:32.211Z,100.00
2022-12-28T11:32:40.476Z,100.00
2022-12-28T11:37:50.477Z,100.00
2022-12-28T11:42:57.180Z,100.00
2022-12-28T11:48:33.193Z,100.00
2022-12-28T11:53:55.360Z,100.00
2022-12-28T11:59:24.683Z,100.00
2022-12-28T12:04:34.116Z,100.00
2022-12-28T12:09:45.353Z,100.00
2022-12-28T12:14:56.163Z,100.00
2022-12-28T12:20:04.008Z,100.00
2022-12-28T12:25:15.599Z,100.00
2022-12-28T12:30:22.810Z,100.00
2022-12-28T12:35:28.188Z,100.00
2022-12-28T12:40:50.287Z,100.00
2022-12-28T12:46:03.468Z,100.00
2022-12-28T12:51:26.711Z,100.00
2022-12-28T12:56:40.608Z,100.00
2022-12-28T13:01:54.300Z,100.00
2022-12-28T13:07:00.710Z,100.00
2022-12-28T13:12:03.815Z,100.00
2022-12-28T13:17:14.879Z,100.00
2022-12-28T13:22:28.758Z,100.00
2022-12-28T13:27:35.228Z,100.00
2022-12-28T13:32:52.258Z,100.00
2022-12-28T13:38:04.152Z,100.00
2022-12-28T13:43:46.289Z,100.00
2022-12-28T13:48:52.859Z,100.00
2022-12-28T13:54:00.614Z,100.00
2022-12-28T13:59:07.852Z,100.00
2022-12-28T14:09:39.698Z,100.00
2022-12-28T14:14:44.331Z,100.00
2022-12-28T14:19:49.105Z,100.00
2022-12-28T14:25:03.011Z,100.00
2022-12-28T14:30:07.775Z,100.00
2022-12-28T14:35:19.212Z,100.00
2022-12-28T14:40:30.483Z,100.00
2022-12-28T14:46:07.300Z,100.00
2022-12-28T14:51:05.000Z,100.00
2022-12-28T14:56:11.970Z,100.00
2022-12-28T15:01:14.925Z,100.00
2022-12-28T15:06:19.989Z,100.00
2022-12-28T15:11:24.963Z,100.00
2022-12-28T15:16:27.824Z,100.00
2022-12-28T15:21:33.222Z,100.00
2022-12-28T15:26:36.024Z,100.00
2022-12-28T15:31:38.923Z,100.00
2022-12-28T15:36:45.462Z,100.00
2022-12-28T15:41:48.234Z,100.00
2022-12-28T15:46:51.552Z,100.00
2022-12-28T15:51:55.714Z,100.00
2022-12-28T15:56:58.490Z,100.00
2022-12-28T16:02:01.740Z,100.00
2022-12-28T16:07:08.148Z,100.00
2022-12-28T16:12:11.061Z,100.00
2022-12-28T16:17:14.580Z,100.00
2022-12-28T16:22:18.721Z,100.00
2022-12-28T16:27:21.646Z,100.00
2022-12-28T16:32:28.601Z,100.00
2022-12-28T16:37:32.743Z,100.00
2022-12-28T16:42:35.841Z,100.00
2022-12-28T16:47:44.445Z,100.00
2022-12-28T16:52:49.205Z,100.00
2022-12-28T16:57:51.928Z,100.00
2022-12-28T17:02:55.021Z,100.00
2022-12-28T17:07:59.375Z,100.00
2022-12-28T17:13:02.261Z,100.00
2022-12-28T17:18:11.596Z,100.00
2022-12-28T17:23:18.229Z,100.00
2022-12-28T17:28:26.758Z,100.00
2022-12-28T17:33:34.035Z,100.00
2022-12-28T17:38:43.192Z,100.00
2022-12-28T17:43:53.609Z,100.00
2022-12-28T17:49:00.886Z,100.00
2022-12-28T17:54:05.686Z,100.00
2022-12-28T17:59:08.792Z,100.00
2022-12-28T18:04:14.516Z,100.00
2022-12-28T18:09:25.707Z,100.00
2022-12-28T18:14:30.773Z,100.00
2022-12-28T18:19:33.530Z,100.00
2022-12-28T18:24:39.013Z,100.00
2022-12-28T18:29:47.862Z,100.00
2022-12-28T18:34:55.103Z,100.00
2022-12-28T18:40:01.747Z,100.00
2022-12-28T18:45:13.704Z,100.00
2022-12-28T18:50:19.309Z,100.00
2022-12-28T18:55:25.640Z,100.00
2022-12-28T19:00:29.805Z,100.00
2022-12-28T19:05:32.764Z,100.00
2022-12-28T19:10:47.626Z,100.00
2022-12-28T19:15:58.429Z,100.00
2022-12-28T19:21:19.416Z,100.00
2022-12-28T19:26:37.259Z,100.00
2022-12-28T19:31:43.045Z,100.00
2022-12-28T19:36:46.120Z,100.00
2022-12-28T19:41:55.666Z,100.00
2022-12-28T19:47:01.249Z,100.00
2022-12-28T19:52:10.609Z,100.00
2022-12-28T19:57:15.585Z,100.00
2022-12-28T20:02:23.358Z,100.00
2022-12-28T20:07:29.476Z,100.00
2022-12-28T20:12:33.621Z,100.00
2022-12-28T20:17:36.397Z,100.00
2022-12-28T20:22:41.314Z,100.00
2022-12-28T20:27:45.435Z,100.00
2022-12-28T20:32:48.429Z,100.00
2022-12-28T20:37:51.227Z,100.00
2022-12-28T20:43:12.637Z,100.00
2022-12-28T20:48:15.774Z,100.00
2022-12-28T20:53:18.560Z,100.00
2022-12-28T20:58:22.785Z,100.00
2022-12-28T21:03:25.535Z,100.00
2022-12-28T21:08:31.049Z,100.00
2022-12-28T21:13:40.734Z,100.00
2022-12-28T21:18:45.406Z,100.00
2022-12-28T21:23:48.618Z,100.00
2022-12-28T21:28:53.047Z,100.00
2022-12-28T21:33:56.541Z,100.00
2022-12-28T21:38:59.298Z,100.00
2022-12-28T21:44:03.445Z,100.00
2022-12-28T21:49:07.137Z,100.00
2022-12-28T21:54:13.217Z,100.00
2022-12-28T21:59:17.619Z,100.00
2022-12-28T22:04:39.594Z,100.00
2022-12-28T22:09:59.628Z,100.00
2022-12-28T22:15:27.108Z,100.00
2022-12-28T22:20:30.865Z,100.00
2022-12-28T22:25:34.399Z,100.00
2022-12-28T22:30:38.797Z,100.00
2022-12-28T22:35:41.528Z,100.00
2022-12-28T22:40:44.347Z,100.00
2022-12-28T22:45:48.534Z,100.00
2022-12-28T22:50:51.333Z,100.00
2022-12-28T22:55:58.468Z,100.00
2022-12-28T23:01:07.949Z,100.00
2022-12-28T23:06:12.467Z,100.00
2022-12-28T23:11:34.954Z,100.00
2022-12-28T23:16:39.186Z,100.00
2022-12-28T23:22:00.381Z,100.00
2022-12-28T23:27:21.209Z,100.00
2022-12-28T23:32:25.471Z,100.00
2022-12-28T23:37:28.273Z,100.00
2022-12-28T23:42:31.047Z,100.00
2022-12-28T23:47:35.594Z,100.00
2022-12-28T23:52:38.421Z,100.00
2022-12-28T23:57:42.251Z,100.00
